Flight Track Log - Related Links

Times and Time Zones

All times are in EDT time to prevent confusion due to time zone crossing. See the SWA709 flight status page for this flight to view local times or setup timezone preferences in your user account.

Time Position Orientation Groundspeed Altitude Reporting Facility
EDT Latitude Longitude Course Direction KTS MPH feet Rate Location/Type
Fri 07:27:12 AM 30.2528 -97.7339 270° West 215 247 4,300  Level Houston Center
Fri 07:28:13 AM 30.2689 -97.8139 283° West 245 282 7,800 3,393 Climbing Houston Center
Fri 07:29:14 AM 30.2825 -97.8967 281° West 250 288 11,200 3,492 Climbing Houston Center
Fri 07:30:15 AM 30.2978 -97.9842 281° West 275 316 14,900 3,025 Climbing Houston Center
Fri 07:31:00 AM 30.4102 -97.8446 276° West  Level FlightAware Approximate
Fri 07:31:15 AM 30.3144 -98.0736 282° West 283 326 17,300  Level Houston Center
Fri 07:32:00 AM 30.4167 -97.9630 270° West  Level FlightAware Approximate
Fri 07:32:16 AM 30.3372 -98.1753 285° West 315 362 18,600  Level Houston Center
Fri 07:33:17 AM 30.3633 -98.2889 285° West 355 409 21,100 2,410 Climbing Houston Center
Fri 07:34:18 AM 30.3878 -98.4058 284° West 367 422 23,500 2,361 Climbing Houston Center
Fri 07:35:19 AM 30.4117 -98.5261 283° West 376 433 25,900 2,115 Climbing Houston Center
Fri 07:36:20 AM 30.4383 -98.6461 284° West 380 437 27,800 2,066 Climbing Houston Center
Fri 07:37:21 AM 30.4633 -98.7664 284° West 380 437 30,100 2,164 Climbing Houston Center
Fri 07:38:22 AM 30.4900 -98.8847 285° West 376 433 32,200 2,115 Climbing Houston Center
Fri 07:39:23 AM 30.5147 -98.9992 284° West 364 419 34,400 1,967 Climbing Houston Center
Fri 07:40:24 AM 30.5383 -99.1072 284° West 347 399 36,200 1,328 Climbing Houston Center
Fri 07:41:25 AM 30.5575 -99.2044 283° West 339 390 37,100 885 Climbing Houston Center
Fri 07:42:26 AM 30.5800 -99.3125 284° West 343 395 38,000 393 Climbing Houston Center
Fri 07:43:27 AM 30.6072 -99.4439 284° West 350 403 37,900 -49 Descending Houston Center
Fri 07:44:28 AM 30.6306 -99.5533 284° West 351 404 37,900  Level Houston Center
Fri 07:45:29 AM 30.6531 -99.6642 283° West 355 409 37,900  Level Houston Center
Fri 07:46:30 AM 30.6739 -99.7736 283° West 351 404 37,900  Level Houston Center
Fri 07:47:31 AM 30.6969 -99.8844 284° West 354 407 37,900  Level Houston Center
Fri 07:48:32 AM 30.7189 -99.9964 283° West 356 410 37,900  Level Houston Center
Fri 07:49:33 AM 30.7419 -100.1075 284° West 356 410 37,900  Level Houston Center
Fri 07:50:34 AM 30.7631 -100.2192 282° West 356 410 37,900  Level Houston Center
Fri 07:51:35 AM 30.7853 -100.3292 283° West 354 407 37,900  Level Houston Center
Fri 07:52:37 AM 30.8078 -100.4397 283° West 355 409 37,900  Level Houston Center
Fri 07:53:37 AM 30.8336 -100.5731 283° West 354 407 37,900  Level Houston Center
Fri 07:54:38 AM 30.8550 -100.6833 283° West 354 407 37,900  Level Houston Center
Fri 07:55:39 AM 30.8767 -100.7922 283° West 351 404 37,900  Level Houston Center
Fri 07:56:40 AM 30.8972 -100.9022 282° West 351 404 37,900  Level Houston Center
Fri 07:57:41 AM 30.9186 -101.0117 283° West 350 403 37,900  Level Houston Center
Fri 07:58:42 AM 30.9392 -101.1214 282° West 350 403 37,900  Level Houston Center
Fri 07:59:43 AM 30.9611 -101.2289 283° West 346 398 37,900  Level Houston Center
Fri 08:00:44 AM 30.9825 -101.3428 282° West 346 398 37,900  Level Houston Center
Fri 08:01:45 AM 31.0031 -101.4544 282° West 350 403 37,900  Level Houston Center
Fri 08:02:50 AM 31.0275 -101.5850 282° West 349 402 37,900  Level Albuquerque Center
Fri 08:03:50 AM 31.0492 -101.6950 283° West 348 400 37,900  Level Albuquerque Center
Fri 08:04:51 AM 31.0689 -101.8069 282° West 351 404 37,900  Level Albuquerque Center
Fri 08:05:51 AM 31.0897 -101.9181 282° West 352 405 37,900 50 Level Albuquerque Center
Fri 08:06:51 AM 31.1092 -102.0314 281° West 361 415 38,000 50 Climbing Albuquerque Center
Fri 08:07:52 AM 31.1300 -102.1436 282° West 356 410 38,000  Level Albuquerque Center
Fri 08:08:52 AM 31.1508 -102.2572 282° West 358 412 38,000  Level Albuquerque Center
Fri 08:09:52 AM 31.1714 -102.3719 282° West 360 414 38,000  Level Albuquerque Center
Fri 08:10:53 AM 31.1922 -102.4872 282° West 362 417 38,000 -50 Level Albuquerque Center
Fri 08:11:53 AM 31.2108 -102.5886 282° West 359 413 37,900 -50 Descending Albuquerque Center
Fri 08:12:54 AM 31.2317 -102.7056 282° West 364 419 37,900  Level Albuquerque Center
Fri 08:13:54 AM 31.2519 -102.8219 282° West 366 421 37,900  Level Albuquerque Center
Fri 08:14:54 AM 31.2767 -102.9611 282° West 365 420 37,900  Level Albuquerque Center
Fri 08:15:55 AM 31.2972 -103.0769 282° West 365 420 37,900  Level Albuquerque Center
Fri 08:16:55 AM 31.3172 -103.1931 281° West 364 419 37,900  Level Albuquerque Center
Fri 08:17:56 AM 31.3361 -103.3081 281° West 363 418 37,900  Level Albuquerque Center
Fri 08:18:56 AM 31.3875 -103.4156 299° West 379 436 37,900  Level Albuquerque Center
Fri 08:19:57 AM 31.4172 -103.5283 287° West 367 422 37,900  Level Albuquerque Center
Fri 08:20:57 AM 31.4478 -103.6428 287° West 366 421 37,900  Level Albuquerque Center
Fri 08:21:57 AM 31.4811 -103.7581 289° West 369 425 37,900  Level Albuquerque Center
Fri 08:22:58 AM 31.5119 -103.8756 287° West 373 429 37,900  Level Albuquerque Center
Fri 08:23:58 AM 31.5456 -103.9919 289° West 376 433 37,900  Level Albuquerque Center
Fri 08:24:59 AM 31.5764 -104.1081 287° West 377 434 37,900  Level Albuquerque Center
Fri 08:25:59 AM 31.6069 -104.2233 287° West 375 432 37,900  Level Albuquerque Center
Fri 08:27:00 AM 31.6367 -104.3386 287° West 373 429 37,900  Level Albuquerque Center
Fri 08:28:00 AM 31.6678 -104.4542 288° West 373 429 37,900  Level Albuquerque Center
Fri 08:29:01 AM 31.6975 -104.5697 287° West 373 429 37,900  Level Albuquerque Center
Fri 08:30:01 AM 31.7272 -104.6831 287° West 371 427 37,900  Level Albuquerque Center
Fri 08:31:02 AM 31.7569 -104.7992 287° West 372 428 37,900  Level Albuquerque Center
Fri 08:32:02 AM 31.7875 -104.9142 287° West 372 428 37,900  Level Albuquerque Center
Fri 08:33:03 AM 31.8181 -105.0311 287° West 375 432 37,900  Level Albuquerque Center
Fri 08:34:03 AM 31.8475 -105.1483 287° West 376 433 37,900  Level Albuquerque Center
Fri 08:35:04 AM 31.8775 -105.2625 287° West 372 428 37,900  Level Albuquerque Center
Fri 08:36:04 AM 31.9061 -105.3833 286° West 383 441 37,900  Level Albuquerque Center
Fri 08:37:05 AM 31.9369 -105.5003 287° West 377 434 37,900  Level Albuquerque Center
Fri 08:38:05 AM 31.9719 -105.6408 286° West 375 432 37,900  Level Albuquerque Center
Fri 08:39:06 AM 32.0017 -105.7581 287° West 375 432 37,900  Level Albuquerque Center
Fri 08:40:06 AM 32.0314 -105.8747 287° West 373 429 37,900  Level Albuquerque Center
Fri 08:41:07 AM 32.0611 -105.9911 287° West 376 433 37,900  Level Albuquerque Center
Fri 08:42:08 AM 32.0897 -106.1075 286° West 371 427 37,900  Level Albuquerque Center
Fri 08:43:08 AM 32.1192 -106.2242 287° West 371 427 37,900  Level Albuquerque Center
Fri 08:44:09 AM 32.1483 -106.3433 286° West 377 434 37,900  Level Albuquerque Center
Fri 08:45:09 AM 32.1767 -106.4625 286° West 378 435 37,900  Level Albuquerque Center
Fri 08:46:10 AM 32.2058 -106.5803 286° West 378 435 37,900  Level Albuquerque Center
Fri 08:47:10 AM 32.2358 -106.6992 287° West 378 435 37,900  Level Albuquerque Center
Fri 08:48:11 AM 32.2650 -106.8183 286° West 380 437 37,900 50 Level Albuquerque Center
Fri 08:49:11 AM 32.3156 -106.9378 297° West 387 445 38,000 50 Climbing Albuquerque Center
Fri 08:50:12 AM 32.3853 -107.0322 311° West 385 443 38,000 -50 Level Albuquerque Center
Fri 08:51:12 AM 32.4494 -107.1186 311° West 386 444 37,900  Descending Albuquerque Center
Fri 08:52:13 AM 32.5158 -107.2094 311° West 386 444 38,000 49 Climbing Albuquerque Center
Fri 08:53:14 AM 32.5994 -107.3217 312° West 383 441 38,000  Level Albuquerque Center
Fri 08:54:14 AM 32.6683 -107.4167 311° West 384 442 38,000 -50 Level Albuquerque Center
Fri 08:55:15 AM 32.7378 -107.5097 312° West 384 442 37,900 -50 Descending Albuquerque Center
Fri 08:56:15 AM 32.8092 -107.6069 311° West 387 445 37,900  Level Albuquerque Center
Fri 08:57:16 AM 32.8794 -107.7033 311° West 387 445 37,900  Level Albuquerque Center
Fri 08:58:16 AM 32.9519 -107.8000 312° West 390 449 37,900  Level Albuquerque Center
Fri 08:59:17 AM 33.0228 -107.8975 311° West 390 449 37,900  Level Albuquerque Center
Fri 09:00:17 AM 33.0953 -107.9939 312° West 391 450 37,900  Level Albuquerque Center
Fri 09:01:18 AM 33.1664 -108.0925 311° West 391 450 37,900 49 Level Albuquerque Center
Fri 09:02:19 AM 33.2342 -108.1828 312° West 389 448 38,000 50 Climbing Albuquerque Center
Fri 09:03:19 AM 33.3164 -108.2972 311° West 385 443 38,000  Level Albuquerque Center
Fri 09:04:20 AM 33.3844 -108.3928 310° West 383 441 38,000  Level Albuquerque Center
Fri 09:05:20 AM 33.4536 -108.4875 311° West 383 441 38,000  Level Albuquerque Center
Fri 09:06:21 AM 33.5219 -108.5825 311° West 382 440 38,000  Level Albuquerque Center
Fri 09:07:21 AM 33.5911 -108.6778 311° West 383 441 38,000  Level Albuquerque Center
Fri 09:08:22 AM 33.6597 -108.7747 310° West 385 443 38,000  Level Albuquerque Center
Fri 09:09:23 AM 33.7300 -108.8731 311° West 391 450 38,000  Level Albuquerque Center
Fri 09:10:23 AM 33.7997 -108.9711 311° West 391 450 38,000  Level Albuquerque Center
Fri 09:11:24 AM 33.8689 -109.0694 310° West 390 449 38,000  Level Albuquerque Center
Fri 09:12:25 AM 33.9528 -109.1881 310° West 391 450 38,000  Level Albuquerque Center
Fri 09:13:25 AM 34.0222 -109.2869 310° West 391 450 38,000  Level Albuquerque Center
Fri 09:14:26 AM 34.0931 -109.3875 310° West 395 455 38,000  Level Albuquerque Center
Fri 09:15:27 AM 34.1600 -109.4831 310° West 395 455 38,000  Level Albuquerque Center
Fri 09:16:27 AM 34.2397 -109.5947 311° West 394 453 38,000  Level Albuquerque Center
Fri 09:17:28 AM 34.3083 -109.6953 310° West 399 459 38,000  Level Albuquerque Center
Fri 09:18:29 AM 34.3769 -109.7936 310° West 399 459 38,000  Level Albuquerque Center
Fri 09:19:30 AM 34.4572 -109.9092 310° West 399 459 38,000  Level Albuquerque Center
Fri 09:20:30 AM 34.5269 -110.0083 310° West 402 463 38,000  Level Albuquerque Center
Fri 09:21:31 AM 34.5956 -110.1103 309° West 404 465 38,000  Level Albuquerque Center
Fri 09:22:32 AM 34.6783 -110.2294 310° West 410 472 38,000  Level Albuquerque Center
Fri 09:23:33 AM 34.7472 -110.3294 310° West 406 467 38,000  Level Albuquerque Center
Fri 09:24:33 AM 34.8153 -110.4308 309° West 404 465 38,000  Level Albuquerque Center
Fri 09:25:34 AM 34.8925 -110.5461 309° West 398 458 38,000  Level Albuquerque Center
Fri 09:26:35 AM 34.9606 -110.6444 310° West 397 457 38,000  Level Albuquerque Center
Fri 09:27:36 AM 35.0294 -110.7456 310° West 399 459 38,000  Level Albuquerque Center
Fri 09:28:37 AM 35.0997 -110.8739 304° West 415 478 38,000  Level Albuquerque Center
Fri 09:29:37 AM 35.1561 -110.9869 301° West 410 472 38,000  Level Albuquerque Center
Fri 09:30:38 AM 35.2106 -111.0992 301° West 407 468 38,000  Level Albuquerque Center
Fri 09:31:39 AM 35.2692 -111.2222 300° West 414 476 38,000  Level Albuquerque Center
Fri 09:32:40 AM 35.3331 -111.3483 302° West 402 463 38,000 -1,230 Level Albuquerque Center
Fri 09:33:41 AM 35.3856 -111.4622 300° West 415 478 35,500 -2,705 Descending Albuquerque Center
Fri 09:34:42 AM 35.4444 -111.5797 302° West 410 472 32,500 -2,656 Descending Albuquerque Center
Fri 09:35:43 AM 35.4992 -111.6947 300° West 399 459 30,100 -1,240 Descending Albuquerque Center
Fri 09:36:43 AM 35.5542 -111.8094 301° West 393 452 30,000 -50 Descending Albuquerque Center
Fri 09:37:44 AM 35.5928 -111.9339 291° West 400 460 30,000  Level Albuquerque Center
Fri 09:38:45 AM 35.5961 -112.1000 271° West 405 466 30,000  Level Albuquerque Center
Fri 09:39:46 AM 35.5994 -112.2128 272° West 410 472 30,000  Level Los Angeles Center
Fri 09:40:47 AM 35.6039 -112.3769 272° West 406 467 30,000  Level Los Angeles Center
Fri 09:41:48 AM 35.6072 -112.5164 272° West 410 472 30,000  Level Los Angeles Center
Fri 09:42:50 AM 35.6097 -112.6450 271° West 406 467 30,000  Level Los Angeles Center
Fri 09:43:51 AM 35.6136 -112.8117 272° West 405 466 30,000  Level Los Angeles Center
Fri 09:44:52 AM 35.6147 -112.9489 271° West 403 464 30,000  Level Los Angeles Center
Fri 09:45:54 AM 35.6181 -113.0903 272° West 402 463 30,000  Level Los Angeles Center
Fri 09:46:55 AM 35.6200 -113.2286 271° West 404 465 30,000 -541 Level Los Angeles Center
Fri 09:47:56 AM 35.6225 -113.3644 271° West 410 472 28,900 -1,610 Descending Los Angeles Center
Fri 09:48:58 AM 35.6239 -113.4967 271° West 399 459 26,700 -2,195 Descending Los Angeles Center
Fri 09:49:59 AM 35.6344 -113.6239 276° West 384 442 24,400 -2,213 Descending Los Angeles Center
Fri 09:51:00 AM 35.6536 -113.7450 281° West 370 426 22,200 -2,098 Descending Los Angeles Center
Fri 09:52:02 AM 35.6708 -113.8633 280° West 358 412 20,100 -2,000 Descending Los Angeles Center
Fri 09:53:03 AM 35.6861 -113.9775 279° West 345 397 18,100 -2,098 Descending Los Angeles Center
Fri 09:54:05 AM 35.7044 -114.1114 280° West 334 384 15,800 -2,021 Descending Los Angeles Center
Fri 09:54:38 AM 35.7089 -114.1672 276° West 333 383 14,900 -2,000 Descending Los Angeles Center
Fri 09:55:20 AM 35.7258 -114.2517 284° West 329 379 13,300 -1,888 Descending Los Angeles Center
Fri 09:56:07 AM 35.7358 -114.3361 278° West 317 365 12,100 -1,101 Descending Los Angeles Center
Fri 09:57:09 AM 35.7719 -114.4286 296° West 310 357 11,300 -829 Descending Los Angeles Center
Fri 09:58:10 AM 35.8239 -114.5186 305° West 321 369 10,400 -911 Descending Los Angeles Center
Fri 09:58:28 AM 35.8450 -114.5511 309° West 320 368 10,100 -575 Descending Los Angeles Center
Fri 09:59:23 AM 35.8750 -114.6050 305° West 312 359 9,700 -931 Descending Los Angeles Center
Fri 10:00:24 AM 35.9333 -114.7050 306° West 276 318 8,300 -887 Descending Los Angeles Center
Fri 10:01:18 AM 35.9714 -114.7694 306° West 275 316 8,000 -545 Descending Los Angeles Center
Fri 10:02:25 AM 36.0142 -114.8456 305° West 241 277 7,200 -750 Descending Los Angeles Center
Fri 10:03:26 AM 36.0522 -114.9100 306° West 215 247 6,400 -1,230 Descending Los Angeles Center
Fri 10:04:27 AM 36.0739 -114.9694 294° West 206 237 4,700 -1,461 Descending Los Angeles Center
Fri 10:05:21 AM 36.0728 -115.0336 269° West 197 227 3,600 -1,013 Descending Los Angeles Center
Fri 10:05:44 AM 36.0733 -115.0408 275° West 205 236 3,400 -885 Descending Los Angeles Center
Fri 10:06:22 AM 36.0733 -115.0867 270° West 153 176 2,700 -968 Descending Los Angeles Center
Fri 10:06:46 AM 36.0736 -115.1047 271° West 176 203 2,400 -212 Descending Los Angeles Center
Fri 10:07:47 AM 36.0736 -115.1503 270° West 171 197 2,400  Level Los Angeles Center
Fri 10:09:00 AM 36.0667 -115.1500 270° West  Level FlightAware Approximate

Login

Don't have an account? Register now (free) for customized features, flight alerts, and more!